Time;durP1;ratioP1;P1;durP2;ratioP2;P2;SDS_P1;SDS_P2;PMS_P1;PMS_P2;Temp;Humidity;BMP_temperature;BMP_pressure;BME280_temperature;BME280_humidity;BME280_pressure;Samples;Min_cycle;Max_cycle;Signal;HPM_P1;HPM_P2
2021/06/22 10:24:01;;;;;;;1233.55;999.90;;;17.90;99.90;;;;;;6081839;23;884248;-71
2021/06/22 10:26:29;;;;;;;1240.00;999.90;;;18.10;99.90;;;;;;6122524;23;20159;-71
2021/06/22 10:28:57;;;;;;;1255.43;999.90;;;18.20;99.90;;;;;;6123003;23;20151;-71
2021/06/22 10:31:22;;;;;;;1259.55;999.90;;;18.30;99.90;;;;;;6121252;23;20268;-71
2021/06/22 10:33:48;;;;;;;1272.78;999.90;;;18.20;99.90;;;;;;6122850;23;20574;-71
2021/06/22 10:36:23;;;;;;;1263.97;999.90;;;18.40;99.90;;;;;;6122938;23;20557;-72
2021/06/22 10:38:51;;;;;;;1259.85;999.90;;;18.50;99.90;;;;;;6122886;23;20149;-72
2021/06/22 10:41:20;;;;;;;1281.05;999.90;;;18.50;99.90;;;;;;6122885;23;20135;-73
2021/06/22 10:43:47;;;;;;;1271.10;999.90;;;18.40;99.90;;;;;;6122874;23;20226;-73
2021/06/22 10:46:18;;;;;;;1284.85;999.90;;;18.30;99.90;;;;;;6122873;23;20135;-73
2021/06/22 10:48:49;;;;;;;1279.63;999.90;;;18.20;99.90;;;;;;6121320;23;20166;-73
2021/06/22 10:51:36;;;;;;;1281.32;999.90;;;18.20;99.90;;;;;;6122662;23;20170;-70
2021/06/22 10:54:02;;;;;;;1251.03;999.90;;;18.20;99.90;;;;;;6121263;23;20481;-74
2021/06/22 10:56:29;;;;;;;1264.35;999.90;;;18.20;99.90;;;;;;6122833;23;20274;-77
2021/06/22 10:59:18;;;;;;;1260.05;999.90;;;18.20;99.90;;;;;;6122683;23;20146;-77
2021/06/22 11:01:53;;;;;;;1265.88;999.90;;;18.30;99.90;;;;;;6122778;23;20443;-75
2021/06/22 11:04:20;;;;;;;1283.10;999.90;;;18.40;99.90;;;;;;6122786;23;20230;-75
2021/06/22 11:07:21;;;;;;;1275.80;999.90;;;18.60;99.90;;;;;;6122616;23;20158;-75
2021/06/22 11:10:10;;;;;;;1282.50;999.90;;;18.90;99.90;;;;;;6033618;23;20255;-76
2021/06/22 11:12:46;;;;;;;1304.53;999.90;;;19.10;99.90;;;;;;6115359;23;20151;-74
2021/06/22 11:15:12;;;;;;;1319.32;999.90;;;19.40;99.90;;;;;;6122492;23;20146;-74
2021/06/22 11:17:43;;;;;;;1331.05;999.90;;;19.60;99.90;;;;;;6122520;23;20198;-74
2021/06/22 11:20:16;;;;;;;1320.20;999.90;;;19.60;99.90;;;;;;6122638;23;20151;-74
2021/06/22 11:23:03;;;;;;;1335.63;999.90;;;19.70;99.90;;;;;;6125070;22;20161;-74
2021/06/22 11:25:47;;;;;;;1321.28;999.90;;;19.70;99.90;;;;;;6308037;22;20134;-74
2021/06/22 11:28:13;;;;;;;1326.35;999.90;;;19.70;99.90;;;;;;6307897;22;20150;-73
2021/06/22 11:37:25;;;;;;;1309.18;999.90;;;19.40;99.90;;;;;;6308097;22;20145;-75
2021/06/22 11:40:20;;;;;;;1309.47;999.90;;;19.50;99.90;;;;;;6307832;22;20145;-76
2021/06/22 11:43:05;;;;;;;1331.65;999.90;;;19.50;99.90;;;;;;6307805;22;20599;-77
2021/06/22 11:45:30;;;;;;;1304.65;999.90;;;19.60;99.90;;;;;;6307565;22;20146;-77
2021/06/22 11:47:58;;;;;;;1323.97;999.90;;;19.50;99.90;;;;;;6307676;22;20163;-78
2021/06/22 11:50:26;;;;;;;1304.47;999.90;;;19.60;99.90;;;;;;6280262;22;20182;-75
2021/06/22 11:53:18;;;;;;;1287.05;999.90;;;19.40;99.90;;;;;;6307630;22;20204;-77
2021/06/22 11:55:48;;;;;;;1272.90;999.90;;;19.30;99.90;;;;;;6274751;22;20207;-79
2021/06/22 11:58:20;;;;;;;1271.80;999.90;;;19.00;99.90;;;;;;6307719;22;20146;-79
2021/06/22 12:00:45;;;;;;;1277.10;999.90;;;19.00;99.90;;;;;;6307635;22;20147;-75
2021/06/22 12:03:11;;;;;;;1272.85;999.90;;;18.90;99.90;;;;;;6307486;22;20207;-89
2021/06/22 12:05:37;;;;;;;1306.45;999.90;;;18.80;99.90;;;;;;6307864;22;20222;-88
2021/06/22 12:08:08;;;;;;;1281.05;999.90;;;18.90;99.90;;;;;;6308043;22;20143;-87
2021/06/22 12:10:50;;;;;;;1296.20;999.90;;;18.90;99.90;;;;;;6307255;22;20166;-83
2021/06/22 12:13:33;;;;;;;1264.90;999.90;;;18.90;99.90;;;;;;6307690;22;20146;-87
2021/06/22 12:16:17;;;;;;;1271.80;999.90;;;18.80;99.90;;;;;;6308051;22;20467;-87
2021/06/22 12:18:43;;;;;;;1284.60;999.90;;;18.80;99.90;;;;;;6307907;22;20139;-89
2021/06/22 12:21:09;;;;;;;1269.47;999.90;;;18.80;99.90;;;;;;6281355;22;20150;-90
2021/06/22 12:23:35;;;;;;;1276.68;999.90;;;18.80;99.90;;;;;;6307421;22;20197;-84
2021/06/22 12:26:00;;;;;;;1293.75;999.90;;;18.70;99.90;;;;;;6307695;22;20514;-87
2021/06/22 12:28:32;;;;;;;1284.20;999.90;;;18.70;99.90;;;;;;6308738;22;20154;-85
2021/06/22 12:31:00;;;;;;;1281.72;999.90;;;18.60;99.90;;;;;;6313454;22;20276;-87
2021/06/22 12:33:28;;;;;;;1293.55;999.90;;;18.50;99.90;;;;;;6310002;22;20166;-89
2021/06/22 12:36:00;;;;;;;1276.13;999.90;;;18.40;99.90;;;;;;6308228;22;20146;-73
2021/06/22 12:38:26;;;;;;;1272.57;999.90;;;18.40;99.90;;;;;;6307576;22;20175;-71
2021/06/22 12:40:56;;;;;;;1266.78;999.90;;;18.30;99.90;;;;;;6307201;22;20218;-76
2021/06/22 12:43:43;;;;;;;1263.13;999.90;;;18.30;99.90;;;;;;6307426;22;20158;-75
2021/06/22 12:46:09;;;;;;;1266.18;999.90;;;18.30;99.90;;;;;;6307480;22;20143;-75
2021/06/22 12:48:35;;;;;;;1277.15;999.90;;;18.30;99.90;;;;;;6309220;22;20147;-75
2021/06/22 12:51:01;;;;;;;1285.88;999.90;;;18.30;99.90;;;;;;6309263;22;20169;-76
2021/06/22 12:53:31;;;;;;;1265.57;999.90;;;18.30;99.90;;;;;;6309309;22;20142;-77
2021/06/22 12:56:14;;;;;;;1261.85;999.90;;;18.30;99.90;;;;;;6309205;22;20223;-71
2021/06/22 12:58:52;;;;;;;1244.47;999.90;;;18.20;99.90;;;;;;6309090;22;20226;-71
2021/06/22 13:01:38;;;;;;;1241.97;999.90;;;18.10;99.90;;;;;;6281420;22;20241;-72
2021/06/22 13:04:07;;;;;;;1197.30;999.90;;;18.10;99.90;;;;;;6309294;22;20139;-72
2021/06/22 13:06:41;;;;;;;1238.68;999.90;;;18.00;99.90;;;;;;6309042;22;20143;-71
2021/06/22 13:09:12;;;;;;;1205.18;999.90;;;17.90;99.90;;;;;;6309197;22;20449;-71
2021/06/22 13:11:41;;;;;;;1273.63;999.90;;;17.80;99.90;;;;;;6309600;22;20470;-72
2021/06/22 13:14:12;;;;;;;1299.07;999.90;;;17.80;99.90;;;;;;6309044;22;20234;-72
2021/06/22 13:16:39;;;;;;;1287.15;999.90;;;17.70;99.90;;;;;;6309137;22;20143;-72
2021/06/22 13:19:16;;;;;;;1265.45;999.90;;;17.60;99.90;;;;;;6308842;22;20235;-72
2021/06/22 13:21:47;;;;;;;1272.78;999.90;;;17.60;99.90;;;;;;6309135;22;20452;-72
2021/06/22 13:24:33;;;;;;;1259.97;999.90;;;17.50;99.90;;;;;;6308737;22;20190;-72
2021/06/22 13:27:01;;;;;;;1249.45;999.90;;;17.40;99.90;;;;;;6309077;22;20143;-72
2021/06/22 13:29:27;;;;;;;1259.90;999.90;;;17.30;99.90;;;;;;6308953;22;20170;-72
2021/06/22 13:31:54;;;;;;;1231.93;999.90;;;17.30;99.90;;;;;;6281675;22;20205;-71
2021/06/22 13:34:26;;;;;;;1233.47;999.90;;;17.20;99.90;;;;;;6309044;22;20146;-71
2021/06/22 13:36:52;;;;;;;1201.63;999.90;;;17.10;99.90;;;;;;6309146;22;20128;-72
2021/06/22 13:39:18;;;;;;;1204.28;999.90;;;17.00;99.90;;;;;;6308927;22;20143;-68
2021/06/22 13:41:45;;;;;;;1175.03;999.90;;;16.90;99.90;;;;;;6310682;22;20466;-81
2021/06/22 13:44:11;;;;;;;1152.82;999.90;;;16.80;99.90;;;;;;6312288;22;20655;-81
2021/06/22 13:46:38;;;;;;;1132.53;999.90;;;16.80;99.90;;;;;;6283672;22;20147;-82
2021/06/22 13:49:04;;;;;;;1117.38;999.90;;;16.80;99.90;;;;;;6310299;22;20139;-84
2021/06/22 13:51:32;;;;;;;1092.47;996.83;;;16.70;99.90;;;;;;6310014;22;20301;-81
2021/06/22 13:54:14;;;;;;;1093.53;997.45;;;16.60;99.90;;;;;;6309622;22;20143;-83
2021/06/22 13:56:42;;;;;;;1066.18;982.75;;;16.60;99.90;;;;;;6310122;22;20169;-83
2021/06/22 13:59:08;;;;;;;1068.13;984.35;;;16.70;99.90;;;;;;6309130;22;20140;-80
2021/06/22 14:27:30;;;;;;;742.10;695.17;;;17.40;99.90;;;;;;5090752;28;20669;-75
2021/06/22 14:29:56;;;;;;;797.38;746.42;;;16.20;99.90;;;;;;5070516;28;20177;-72
2021/06/22 14:32:22;;;;;;;816.50;763.75;;;16.30;99.90;;;;;;5070568;28;20183;-73
2021/06/22 14:34:48;;;;;;;840.67;785.95;;;16.30;99.90;;;;;;5070189;28;20169;-74
2021/06/22 14:37:15;;;;;;;884.55;825.60;;;16.30;99.90;;;;;;5070585;28;20179;-75
2021/06/22 14:39:41;;;;;;;879.75;821.17;;;16.20;99.90;;;;;;5052947;28;20275;-75
2021/06/22 14:42:07;;;;;;;911.22;849.45;;;16.30;99.90;;;;;;5070297;28;20597;-76
2021/06/22 14:44:32;;;;;;;922.63;859.47;;;16.30;99.90;;;;;;5070350;28;20596;-75
2021/06/22 15:16:57;;;;;;;706.10;662.50;;;18.30;99.90;;;;;;5147748;27;21056;-70
2021/06/22 15:19:24;;;;;;;761.85;713.85;;;15.80;99.90;;;;;;5131658;28;20166;-70
2021/06/22 15:21:50;;;;;;;772.70;723.40;;;15.90;99.90;;;;;;5131580;27;20169;-70
2021/06/22 15:24:17;;;;;;;795.03;744.25;;;15.90;99.90;;;;;;5131577;27;20172;-69
2021/06/22 15:26:43;;;;;;;821.65;768.35;;;16.10;99.90;;;;;;5129987;27;20163;-68
2021/06/22 15:29:27;;;;;;;845.30;790.10;;;15.80;99.90;;;;;;5131461;28;20173;-68
2021/06/22 15:31:54;;;;;;;834.40;780.15;;;15.90;99.90;;;;;;5131304;27;20158;-69
2021/06/22 15:54:12;;;;;;;681.50;639.72;;;15.70;99.90;;;;;;5111144;27;20462;-69
2021/06/22 15:56:37;;;;;;;728.80;683.28;;;15.70;99.90;;;;;;5111098;28;20642;-69
2021/06/22 15:59:07;;;;;;;776.13;726.97;;;15.70;99.90;;;;;;5111101;28;20238;-69
2021/06/22 16:01:33;;;;;;;801.55;750.30;;;15.70;99.90;;;;;;5111070;28;20216;-69
2021/06/22 16:03:58;;;;;;;800.88;749.47;;;15.70;99.90;;;;;;5111091;28;20179;-69
2021/06/22 16:06:24;;;;;;;812.97;760.33;;;15.70;99.90;;;;;;5111049;28;20188;-69
2021/06/22 16:08:50;;;;;;;827.05;773.70;;;15.70;99.90;;;;;;5110916;28;20585;-69
2021/06/22 17:09:36;;;;;;;712.83;669.10;;;14.50;99.90;;;;;;5070574;28;20546;-68
2021/06/22 17:12:02;;;;;;;747.28;700.03;;;14.60;99.90;;;;;;5070602;28;20211;-68
2021/06/22 17:14:28;;;;;;;808.95;757.33;;;14.60;99.90;;;;;;5070664;28;20221;-68
2021/06/22 17:16:54;;;;;;;811.70;759.42;;;14.60;99.90;;;;;;5070397;28;20585;-68
